Terminal Aerodrome Forecast
Issued by NWS

Current Version | Previous Version | Text Only | Print | Product List | Glossary On
Versions: 1 2 3 4 5 6 7 8 9 10 11 12 13 14 15 16 17 18 19 20 21 22 23 24 25 26 27 28 29 30 31 32 33 34 35 36 37 38 39 40 41 42 43 44 45
000
FTUS46 KPQR 060525
TAFONP
TAF
KONP 060525Z 0606/0706 20007KT 1SM BR OVC002
     FM061000 20004KT 1/4SM FG OVC001
     FM061600 22007KT 2SM BR OVC004
     FM061800 22009KT P6SM OVC006
     FM070100 22006KT 2SM BR SCT005=

USA.gov is the U.S. government's official web portal to all federal, state and local government web resources and services.